sensor_id;sensor_type;location;lat;lon;timestamp;pressure;altitude;pressure_sealevel;temperature;humidity
13241;BME280;6687;47.790;7.322;2023-02-26T06:12:07;98560.44;;;-0.93;69.18
13241;BME280;6687;47.790;7.322;2023-02-26T06:14:35;98576.22;;;-0.58;68.98
13241;BME280;6687;47.790;7.322;2023-02-26T06:17:02;98574.06;;;-0.26;68.91
13241;BME280;6687;47.790;7.322;2023-02-26T06:19:29;98572.53;;;-0.87;68.48
13241;BME280;6687;47.790;7.322;2023-02-26T06:21:56;98583.63;;;-0.85;68.92
13241;BME280;6687;47.790;7.322;2023-02-26T06:24:23;98590.41;;;-0.42;68.43
13241;BME280;6687;47.790;7.322;2023-02-26T06:26:49;98592.63;;;-0.29;68.64
13241;BME280;6687;47.790;7.322;2023-02-26T06:29:18;98605.09;;;-0.78;68.27
13241;BME280;6687;47.790;7.322;2023-02-26T06:31:45;98605.69;;;-0.84;68.95
13241;BME280;6687;47.790;7.322;2023-02-26T06:34:12;98609.66;;;-0.91;69.07
13241;BME280;6687;47.790;7.322;2023-02-26T06:36:39;98610.56;;;-0.69;69.67
13241;BME280;6687;47.790;7.322;2023-02-26T06:39:06;98613.50;;;-0.58;69.01
13241;BME280;6687;47.790;7.322;2023-02-26T06:41:33;98612.13;;;-0.92;69.15
13241;BME280;6687;47.790;7.322;2023-02-26T06:44:00;98623.81;;;-0.76;68.66
13241;BME280;6687;47.790;7.322;2023-02-26T06:46:28;98615.97;;;-0.62;68.96
13241;BME280;6687;47.790;7.322;2023-02-26T06:48:55;98608.66;;;-0.52;69.40
13241;BME280;6687;47.790;7.322;2023-02-26T06:51:21;98611.97;;;-0.76;70.15
13241;BME280;6687;47.790;7.322;2023-02-26T06:53:48;98609.50;;;-0.95;69.25
13241;BME280;6687;47.790;7.322;2023-02-26T06:56:15;98611.16;;;-0.75;69.47
13241;BME280;6687;47.790;7.322;2023-02-26T06:58:42;98613.25;;;-1.07;69.29
13241;BME280;6687;47.790;7.322;2023-02-26T07:01:08;98614.75;;;-0.70;69.33
13241;BME280;6687;47.790;7.322;2023-02-26T07:03:37;98622.63;;;-0.43;69.58
13241;BME280;6687;47.790;7.322;2023-02-26T07:06:05;98622.81;;;-0.80;69.14
13241;BME280;6687;47.790;7.322;2023-02-26T07:08:33;98620.44;;;-0.96;69.22
13241;BME280;6687;47.790;7.322;2023-02-26T07:11:00;98621.44;;;-0.93;70.20
13241;BME280;6687;47.790;7.322;2023-02-26T07:13:27;98616.78;;;-0.82;69.73
13241;BME280;6687;47.790;7.322;2023-02-26T07:15:54;98629.63;;;-0.58;69.61
13241;BME280;6687;47.790;7.322;2023-02-26T07:18:20;98615.50;;;-0.93;69.89
13241;BME280;6687;47.790;7.322;2023-02-26T07:20:49;98623.44;;;-0.65;69.86
13241;BME280;6687;47.790;7.322;2023-02-26T07:23:16;98631.91;;;-0.66;69.55
13241;BME280;6687;47.790;7.322;2023-02-26T07:25:43;98625.44;;;-0.57;69.63
13241;BME280;6687;47.790;7.322;2023-02-26T07:28:09;98643.94;;;-0.62;69.20
13241;BME280;6687;47.790;7.322;2023-02-26T07:30:36;98645.72;;;-0.59;69.69
13241;BME280;6687;47.790;7.322;2023-02-26T07:33:03;98640.06;;;-0.73;69.54
13241;BME280;6687;47.790;7.322;2023-02-26T07:35:30;98654.00;;;-0.44;69.06
13241;BME280;6687;47.790;7.322;2023-02-26T07:37:58;98651.13;;;-0.51;68.64
13241;BME280;6687;47.790;7.322;2023-02-26T07:40:24;98654.22;;;-0.58;69.15
13241;BME280;6687;47.790;7.322;2023-02-26T07:42:51;98662.53;;;-0.21;68.26
13241;BME280;6687;47.790;7.322;2023-02-26T07:45:18;98665.03;;;-0.43;68.59
13241;BME280;6687;47.790;7.322;2023-02-26T07:47:46;98664.03;;;-0.47;68.57
13241;BME280;6687;47.790;7.322;2023-02-26T07:50:13;98669.84;;;-0.70;69.35
13241;BME280;6687;47.790;7.322;2023-02-26T07:52:40;98671.69;;;-0.03;68.65
13241;BME280;6687;47.790;7.322;2023-02-26T07:55:09;98673.78;;;-0.36;68.09
13241;BME280;6687;47.790;7.322;2023-02-26T07:57:36;98670.47;;;-0.34;69.11
13241;BME280;6687;47.790;7.322;2023-02-26T08:00:04;98674.22;;;-0.26;68.18
13241;BME280;6687;47.790;7.322;2023-02-26T08:02:31;98665.75;;;-0.04;67.73
13241;BME280;6687;47.790;7.322;2023-02-26T08:04:58;98661.03;;;-0.15;67.70
13241;BME280;6687;47.790;7.322;2023-02-26T08:07:24;98670.59;;;-0.31;68.24
13241;BME280;6687;47.790;7.322;2023-02-26T08:09:51;98662.13;;;0.12;67.58
13241;BME280;6687;47.790;7.322;2023-02-26T08:12:19;98653.00;;;-0.04;67.75
13241;BME280;6687;47.790;7.322;2023-02-26T08:14:46;98658.97;;;-0.03;67.86
13241;BME280;6687;47.790;7.322;2023-02-26T08:17:13;98660.91;;;-0.18;68.21
13241;BME280;6687;47.790;7.322;2023-02-26T08:19:40;98663.72;;;0.10;68.26
13241;BME280;6687;47.790;7.322;2023-02-26T08:22:06;98655.25;;;0.11;68.27
13241;BME280;6687;47.790;7.322;2023-02-26T08:24:33;98652.47;;;0.05;68.81
13241;BME280;6687;47.790;7.322;2023-02-26T08:27:00;98659.72;;;0.17;68.44
13241;BME280;6687;47.790;7.322;2023-02-26T08:29:28;98652.56;;;-0.14;67.36
13241;BME280;6687;47.790;7.322;2023-02-26T08:31:55;98656.88;;;0.09;67.24
13241;BME280;6687;47.790;7.322;2023-02-26T08:34:22;98659.13;;;0.02;66.83
13241;BME280;6687;47.790;7.322;2023-02-26T08:36:49;98669.84;;;-0.07;67.18
13241;BME280;6687;47.790;7.322;2023-02-26T08:39:15;98660.81;;;0.24;66.65
13241;BME280;6687;47.790;7.322;2023-02-26T08:41:42;98646.69;;;0.09;66.20
13241;BME280;6687;47.790;7.322;2023-02-26T08:44:09;98651.13;;;0.36;65.32
13241;BME280;6687;47.790;7.322;2023-02-26T08:46:37;98652.91;;;0.38;65.56
13241;BME280;6687;47.790;7.322;2023-02-26T08:49:04;98646.69;;;0.54;65.69
13241;BME280;6687;47.790;7.322;2023-02-26T08:51:31;98642.34;;;0.52;65.14
13241;BME280;6687;47.790;7.322;2023-02-26T08:53:58;98659.69;;;0.38;65.55
13241;BME280;6687;47.790;7.322;2023-02-26T08:56:25;98659.91;;;0.44;65.28
13241;BME280;6687;47.790;7.322;2023-02-26T08:58:52;98658.78;;;0.37;66.96
13241;BME280;6687;47.790;7.322;2023-02-26T09:01:18;98669.38;;;0.26;65.76
13241;BME280;6687;47.790;7.322;2023-02-26T09:03:46;98673.56;;;0.46;65.85
13241;BME280;6687;47.790;7.322;2023-02-26T09:06:13;98685.25;;;0.41;66.28
13241;BME280;6687;47.790;7.322;2023-02-26T09:08:40;98680.28;;;0.44;65.75
13241;BME280;6687;47.790;7.322;2023-02-26T09:11:07;98684.91;;;0.32;66.04
13241;BME280;6687;47.790;7.322;2023-02-26T09:13:34;98690.16;;;0.59;65.85
13241;BME280;6687;47.790;7.322;2023-02-26T09:16:01;98685.63;;;0.50;66.01
13241;BME280;6687;47.790;7.322;2023-02-26T09:18:28;98685.16;;;0.38;66.32
13241;BME280;6687;47.790;7.322;2023-02-26T09:20:56;98672.16;;;0.54;66.86
13241;BME280;6687;47.790;7.322;2023-02-26T09:23:23;98689.88;;;0.74;65.85
13241;BME280;6687;47.790;7.322;2023-02-26T09:25:51;98674.59;;;0.74;66.41
13241;BME280;6687;47.790;7.322;2023-02-26T09:28:19;98676.00;;;0.90;66.30
13241;BME280;6687;47.790;7.322;2023-02-26T09:30:46;98674.16;;;1.11;66.75
13241;BME280;6687;47.790;7.322;2023-02-26T09:33:12;98674.69;;;0.77;63.71
13241;BME280;6687;47.790;7.322;2023-02-26T09:35:39;98680.13;;;0.86;61.50
13241;BME280;6687;47.790;7.322;2023-02-26T09:38:07;98676.72;;;0.87;60.00
13241;BME280;6687;47.790;7.322;2023-02-26T09:40:40;98669.56;;;1.01;62.27
13241;BME280;6687;47.790;7.322;2023-02-26T09:43:46;98677.66;;;1.13;62.21
13241;BME280;6687;47.790;7.322;2023-02-26T09:46:23;98679.41;;;0.90;61.89
13241;BME280;6687;47.790;7.322;2023-02-26T09:49:06;98673.91;;;0.79;61.87
13241;BME280;6687;47.790;7.322;2023-02-26T09:51:36;98682.06;;;0.93;61.04
13241;BME280;6687;47.790;7.322;2023-02-26T09:54:12;98672.94;;;1.00;59.32
13241;BME280;6687;47.790;7.322;2023-02-26T09:56:41;98690.31;;;0.86;59.23
13241;BME280;6687;47.790;7.322;2023-02-26T09:59:09;98677.19;;;0.99;60.64
13241;BME280;6687;47.790;7.322;2023-02-26T10:01:39;98675.22;;;0.92;59.88
13241;BME280;6687;47.790;7.322;2023-02-26T10:04:16;98676.94;;;0.93;59.13
13241;BME280;6687;47.790;7.322;2023-02-26T10:06:54;98686.13;;;1.12;59.57
13241;BME280;6687;47.790;7.322;2023-02-26T10:09:37;98673.81;;;1.01;60.03
13241;BME280;6687;47.790;7.322;2023-02-26T10:12:12;98687.06;;;0.90;58.20
13241;BME280;6687;47.790;7.322;2023-02-26T10:14:42;98681.09;;;0.90;54.74
13241;BME280;6687;47.790;7.322;2023-02-26T10:17:15;98676.53;;;1.31;56.93
13241;BME280;6687;47.790;7.322;2023-02-26T10:19:49;98682.59;;;1.09;58.86
13241;BME280;6687;47.790;7.322;2023-02-26T10:22:22;98693.34;;;0.76;59.35
13241;BME280;6687;47.790;7.322;2023-02-26T10:24:59;98690.75;;;0.98;59.13
13241;BME280;6687;47.790;7.322;2023-02-26T10:27:37;98697.69;;;0.78;58.65
13241;BME280;6687;47.790;7.322;2023-02-26T10:30:09;98702.03;;;0.81;59.32
13241;BME280;6687;47.790;7.322;2023-02-26T10:32:44;98722.00;;;0.93;59.05
13241;BME280;6687;47.790;7.322;2023-02-26T10:35:15;98713.22;;;1.09;58.81
13241;BME280;6687;47.790;7.322;2023-02-26T10:37:47;98718.97;;;1.03;58.22
13241;BME280;6687;47.790;7.322;2023-02-26T10:40:19;98710.50;;;1.28;58.25
13241;BME280;6687;47.790;7.322;2023-02-26T10:42:52;98718.69;;;0.95;57.44
13241;BME280;6687;47.790;7.322;2023-02-26T10:45:36;98716.38;;;1.02;56.85
13241;BME280;6687;47.790;7.322;2023-02-26T10:48:20;98709.94;;;1.13;57.64
13241;BME280;6687;47.790;7.322;2023-02-26T10:50:52;98714.75;;;1.04;58.25
13241;BME280;6687;47.790;7.322;2023-02-26T10:53:20;98711.06;;;1.19;58.65
13241;BME280;6687;47.790;7.322;2023-02-26T10:55:50;98716.47;;;1.05;57.91
13241;BME280;6687;47.790;7.322;2023-02-26T10:58:20;98710.06;;;1.16;57.75
13241;BME280;6687;47.790;7.322;2023-02-26T11:00:49;98715.00;;;1.11;57.29
13241;BME280;6687;47.790;7.322;2023-02-26T11:03:20;98712.13;;;1.26;58.38
13241;BME280;6687;47.790;7.322;2023-02-26T11:05:47;98710.50;;;1.54;58.74
13241;BME280;6687;47.790;7.322;2023-02-26T11:08:17;98717.91;;;1.46;58.56
13241;BME280;6687;47.790;7.322;2023-02-26T11:10:49;98716.94;;;1.43;58.33
13241;BME280;6687;47.790;7.322;2023-02-26T11:13:17;98705.25;;;1.49;58.07
13241;BME280;6687;47.790;7.322;2023-02-26T11:15:46;98707.84;;;1.51;57.58
13241;BME280;6687;47.790;7.322;2023-02-26T11:18:17;98709.59;;;1.77;57.11
13241;BME280;6687;47.790;7.322;2023-02-26T11:20:45;98707.63;;;1.45;56.91
13241;BME280;6687;47.790;7.322;2023-02-26T11:23:16;98718.69;;;1.69;56.54
13241;BME280;6687;47.790;7.322;2023-02-26T11:25:44;98713.50;;;1.93;57.87
13241;BME280;6687;47.790;7.322;2023-02-26T11:28:22;98713.97;;;1.82;57.65
13241;BME280;6687;47.790;7.322;2023-02-26T11:30:50;98717.84;;;1.96;58.08
13241;BME280;6687;47.790;7.322;2023-02-26T11:33:22;98733.44;;;1.78;59.95
13241;BME280;6687;47.790;7.322;2023-02-26T11:35:50;98719.47;;;1.43;66.37
13241;BME280;6687;47.790;7.322;2023-02-26T11:38:20;98717.91;;;1.46;66.58
13241;BME280;6687;47.790;7.322;2023-02-26T11:40:51;98726.34;;;1.44;64.72
13241;BME280;6687;47.790;7.322;2023-02-26T11:43:23;98709.59;;;1.52;63.53
13241;BME280;6687;47.790;7.322;2023-02-26T11:45:54;98719.28;;;1.36;62.82
13241;BME280;6687;47.790;7.322;2023-02-26T11:48:25;98714.75;;;1.29;62.02
13241;BME280;6687;47.790;7.322;2023-02-26T11:50:56;98709.84;;;1.85;61.45
13241;BME280;6687;47.790;7.322;2023-02-26T11:53:25;98715.09;;;1.64;60.07
13241;BME280;6687;47.790;7.322;2023-02-26T11:55:59;98705.13;;;1.97;60.54
13241;BME280;6687;47.790;7.322;2023-02-26T11:58:34;98717.53;;;1.87;57.74
13241;BME280;6687;47.790;7.322;2023-02-26T12:01:02;98729.59;;;1.91;57.16
13241;BME280;6687;47.790;7.322;2023-02-26T12:03:32;98732.09;;;2.16;56.64
13241;BME280;6687;47.790;7.322;2023-02-26T12:06:00;98719.81;;;1.79;58.39
13241;BME280;6687;47.790;7.322;2023-02-26T12:08:30;98735.38;;;1.85;61.60
13241;BME280;6687;47.790;7.322;2023-02-26T12:14:21;98726.38;;;1.21;80.41
13241;BME280;6687;47.790;7.322;2023-02-26T12:17:03;98732.50;;;1.50;80.61
13241;BME280;6687;47.790;7.322;2023-02-26T12:19:39;98724.47;;;1.64;78.19
13241;BME280;6687;47.790;7.322;2023-02-26T12:22:26;98712.03;;;1.49;75.81
13241;BME280;6687;47.790;7.322;2023-02-26T12:25:17;98723.06;;;1.48;73.67
13241;BME280;6687;47.790;7.322;2023-02-26T12:28:04;98710.59;;;1.83;71.98
13241;BME280;6687;47.790;7.322;2023-02-26T12:30:48;98705.47;;;1.83;70.56
13241;BME280;6687;47.790;7.322;2023-02-26T12:33:26;98698.72;;;1.83;67.79
13241;BME280;6687;47.790;7.322;2023-02-26T12:36:12;98691.13;;;2.13;64.29
13241;BME280;6687;47.790;7.322;2023-02-26T12:38:48;98701.44;;;2.16;62.97
13241;BME280;6687;47.790;7.322;2023-02-26T12:44:19;98705.31;;;2.31;60.05
13241;BME280;6687;47.790;7.322;2023-02-26T12:47:00;98705.38;;;2.34;59.69
13241;BME280;6687;47.790;7.322;2023-02-26T12:49:44;98699.03;;;2.50;58.12
13241;BME280;6687;47.790;7.322;2023-02-26T12:55:21;98711.34;;;2.34;57.86
13241;BME280;6687;47.790;7.322;2023-02-26T12:58:01;98715.34;;;2.53;57.98
13241;BME280;6687;47.790;7.322;2023-02-26T13:04:01;98717.06;;;2.54;57.68
13241;BME280;6687;47.790;7.322;2023-02-26T13:09:44;98710.06;;;3.39;58.00
13241;BME280;6687;47.790;7.322;2023-02-26T13:12:25;98711.13;;;3.16;59.26
13241;BME280;6687;47.790;7.322;2023-02-26T13:15:01;98711.22;;;3.19;57.10
13241;BME280;6687;47.790;7.322;2023-02-26T13:17:39;98716.25;;;3.16;56.15
13241;BME280;6687;47.790;7.322;2023-02-26T13:20:14;98726.59;;;3.19;56.30
13241;BME280;6687;47.790;7.322;2023-02-26T13:22:45;98706.13;;;2.89;54.79
13241;BME280;6687;47.790;7.322;2023-02-26T13:25:18;98724.44;;;3.34;55.01
13241;BME280;6687;47.790;7.322;2023-02-26T13:27:48;98720.72;;;3.55;55.56
13241;BME280;6687;47.790;7.322;2023-02-26T13:30:24;98717.53;;;3.32;55.87
13241;BME280;6687;47.790;7.322;2023-02-26T13:32:54;98708.19;;;3.32;55.26
13241;BME280;6687;47.790;7.322;2023-02-26T13:35:27;98724.16;;;3.24;55.96
13241;BME280;6687;47.790;7.322;2023-02-26T13:37:56;98724.19;;;3.25;55.69
13241;BME280;6687;47.790;7.322;2023-02-26T13:40:46;98723.88;;;3.13;55.93
13241;BME280;6687;47.790;7.322;2023-02-26T13:43:34;98726.53;;;3.49;56.68
13241;BME280;6687;47.790;7.322;2023-02-26T13:46:16;98727.16;;;3.09;55.28
13241;BME280;6687;47.790;7.322;2023-02-26T13:48:54;98727.00;;;3.34;56.74
13241;BME280;6687;47.790;7.322;2023-02-26T13:51:32;98733.56;;;3.58;58.07
13241;BME280;6687;47.790;7.322;2023-02-26T13:54:01;98738.22;;;3.08;55.57
13241;BME280;6687;47.790;7.322;2023-02-26T13:56:47;98731.38;;;3.38;55.16
13241;BME280;6687;47.790;7.322;2023-02-26T13:59:29;98727.38;;;3.48;54.54
13241;BME280;6687;47.790;7.322;2023-02-26T14:02:00;98734.63;;;3.33;55.16
13241;BME280;6687;47.790;7.322;2023-02-26T14:04:28;98744.19;;;3.38;56.32
13241;BME280;6687;47.790;7.322;2023-02-26T14:06:58;98759.47;;;3.35;54.10
13241;BME280;6687;47.790;7.322;2023-02-26T14:09:35;98731.78;;;3.22;54.64
13241;BME280;6687;47.790;7.322;2023-02-26T14:12:03;98732.13;;;3.68;54.29
13241;BME280;6687;47.790;7.322;2023-02-26T14:14:38;98729.06;;;3.81;54.14
13241;BME280;6687;47.790;7.322;2023-02-26T14:17:28;98734.72;;;3.36;54.17
13241;BME280;6687;47.790;7.322;2023-02-26T14:20:17;98724.97;;;4.24;53.35
13241;BME280;6687;47.790;7.322;2023-02-26T14:22:50;98731.59;;;3.46;53.07
13241;BME280;6687;47.790;7.322;2023-02-26T14:25:20;98738.13;;;4.03;54.14
13241;BME280;6687;47.790;7.322;2023-02-26T14:28:28;98729.16;;;4.21;51.61
13241;BME280;6687;47.790;7.322;2023-02-26T14:31:06;98736.22;;;3.94;51.27
13241;BME280;6687;47.790;7.322;2023-02-26T14:33:39;98720.38;;;3.76;50.35
13241;BME280;6687;47.790;7.322;2023-02-26T14:36:18;98725.09;;;3.94;49.56
13241;BME280;6687;47.790;7.322;2023-02-26T14:38:47;98733.09;;;4.06;50.87
13241;BME280;6687;47.790;7.322;2023-02-26T14:41:25;98721.50;;;4.22;48.83
13241;BME280;6687;47.790;7.322;2023-02-26T14:43:59;98736.38;;;4.01;47.97
13241;BME280;6687;47.790;7.322;2023-02-26T14:46:27;98737.50;;;4.13;49.83
13241;BME280;6687;47.790;7.322;2023-02-26T14:48:54;98737.59;;;3.82;48.07
13241;BME280;6687;47.790;7.322;2023-02-26T14:51:28;98747.75;;;3.77;51.29
13241;BME280;6687;47.790;7.322;2023-02-26T14:54:18;98750.53;;;3.21;55.16
13241;BME280;6687;47.790;7.322;2023-02-26T14:57:00;98744.94;;;3.34;55.57
13241;BME280;6687;47.790;7.322;2023-02-26T14:59:38;98755.09;;;2.72;59.10
13241;BME280;6687;47.790;7.322;2023-02-26T15:02:18;98747.50;;;3.34;58.98
13241;BME280;6687;47.790;7.322;2023-02-26T15:05:13;98750.09;;;3.06;57.85
13241;BME280;6687;47.790;7.322;2023-02-26T15:07:57;98752.63;;;3.36;57.57
13241;BME280;6687;47.790;7.322;2023-02-26T15:10:36;98759.25;;;2.97;59.31
13241;BME280;6687;47.790;7.322;2023-02-26T15:13:23;98768.00;;;3.06;61.09
13241;BME280;6687;47.790;7.322;2023-02-26T15:15:56;98761.00;;;2.70;62.00
13241;BME280;6687;47.790;7.322;2023-02-26T15:18:46;98757.81;;;2.77;62.60
13241;BME280;6687;47.790;7.322;2023-02-26T15:21:21;98759.16;;;2.94;61.72
13241;BME280;6687;47.790;7.322;2023-02-26T15:23:53;98757.47;;;2.95;60.97
13241;BME280;6687;47.790;7.322;2023-02-26T15:26:24;98770.56;;;3.06;62.88
13241;BME280;6687;47.790;7.322;2023-02-26T15:28:52;98763.00;;;2.80;65.69
13241;BME280;6687;47.790;7.322;2023-02-26T15:31:20;98769.50;;;2.97;63.72
13241;BME280;6687;47.790;7.322;2023-02-26T15:33:54;98767.41;;;2.55;61.97
13241;BME280;6687;47.790;7.322;2023-02-26T15:36:21;98760.09;;;2.96;61.29
13241;BME280;6687;47.790;7.322;2023-02-26T15:38:54;98763.09;;;2.54;59.76
13241;BME280;6687;47.790;7.322;2023-02-26T15:41:24;98756.41;;;2.87;60.17
13241;BME280;6687;47.790;7.322;2023-02-26T15:43:56;98757.53;;;2.68;58.74
13241;BME280;6687;47.790;7.322;2023-02-26T15:46:28;98766.13;;;2.70;59.02
13241;BME280;6687;47.790;7.322;2023-02-26T15:49:00;98777.84;;;2.92;59.53
13241;BME280;6687;47.790;7.322;2023-02-26T15:51:28;98775.63;;;3.03;60.51
13241;BME280;6687;47.790;7.322;2023-02-26T15:53:54;98773.59;;;2.92;59.05
13241;BME280;6687;47.790;7.322;2023-02-26T15:56:30;98772.16;;;3.02;58.96
13241;BME280;6687;47.790;7.322;2023-02-26T15:59:00;98771.25;;;3.00;60.45
13241;BME280;6687;47.790;7.322;2023-02-26T16:01:29;98770.44;;;2.72;60.57
13241;BME280;6687;47.790;7.322;2023-02-26T16:03:57;98785.47;;;2.90;59.66
13241;BME280;6687;47.790;7.322;2023-02-26T16:06:27;98772.16;;;3.01;59.10
13241;BME280;6687;47.790;7.322;2023-02-26T16:08:55;98769.59;;;2.72;59.43
13241;BME280;6687;47.790;7.322;2023-02-26T16:11:23;98777.91;;;2.65;59.82
13241;BME280;6687;47.790;7.322;2023-02-26T16:13:53;98761.75;;;2.38;59.90
13241;BME280;6687;47.790;7.322;2023-02-26T16:16:24;98767.44;;;2.86;60.27
13241;BME280;6687;47.790;7.322;2023-02-26T16:18:53;98774.47;;;2.35;60.02
13241;BME280;6687;47.790;7.322;2023-02-26T16:21:24;98784.38;;;2.81;60.88
13241;BME280;6687;47.790;7.322;2023-02-26T16:23:53;98790.16;;;2.75;59.78
13241;BME280;6687;47.790;7.322;2023-02-26T16:26:27;98797.72;;;2.43;59.75
13241;BME280;6687;47.790;7.322;2023-02-26T16:29:00;98789.50;;;2.53;60.52
13241;BME280;6687;47.790;7.322;2023-02-26T16:31:29;98795.88;;;2.39;60.57
13241;BME280;6687;47.790;7.322;2023-02-26T16:34:00;98798.59;;;2.72;60.00
13241;BME280;6687;47.790;7.322;2023-02-26T16:36:30;98796.75;;;2.39;60.25
13241;BME280;6687;47.790;7.322;2023-02-26T16:39:14;98808.13;;;2.49;60.47
13241;BME280;6687;47.790;7.322;2023-02-26T16:41:46;98801.84;;;2.67;60.06
13241;BME280;6687;47.790;7.322;2023-02-26T16:44:47;98806.97;;;2.95;60.32
13241;BME280;6687;47.790;7.322;2023-02-26T16:47:15;98808.69;;;2.68;59.55
13241;BME280;6687;47.790;7.322;2023-02-26T16:49:43;98817.56;;;2.79;59.51
13241;BME280;6687;47.790;7.322;2023-02-26T16:52:17;98821.91;;;2.54;59.40
13241;BME280;6687;47.790;7.322;2023-02-26T16:54:52;98817.63;;;2.53;58.98
13241;BME280;6687;47.790;7.322;2023-02-26T16:57:24;98823.34;;;2.46;58.41
13241;BME280;6687;47.790;7.322;2023-02-26T16:59:55;98829.50;;;2.51;59.24
13241;BME280;6687;47.790;7.322;2023-02-26T17:02:25;98818.44;;;2.52;57.71
13241;BME280;6687;47.790;7.322;2023-02-26T17:04:57;98825.00;;;2.44;58.30
13241;BME280;6687;47.790;7.322;2023-02-26T17:07:27;98827.78;;;2.25;57.75
13241;BME280;6687;47.790;7.322;2023-02-26T17:09:57;98837.78;;;2.17;57.65
13241;BME280;6687;47.790;7.322;2023-02-26T17:12:29;98823.56;;;2.25;59.02
13241;BME280;6687;47.790;7.322;2023-02-26T17:15:15;98840.34;;;2.17;57.98
13241;BME280;6687;47.790;7.322;2023-02-26T17:17:44;98848.19;;;2.49;58.80
13241;BME280;6687;47.790;7.322;2023-02-26T17:20:12;98849.38;;;2.07;59.45
13241;BME280;6687;47.790;7.322;2023-02-26T17:22:41;98855.88;;;2.25;59.38
13241;BME280;6687;47.790;7.322;2023-02-26T17:25:13;98845.25;;;1.87;59.45
13241;BME280;6687;47.790;7.322;2023-02-26T17:27:40;98861.03;;;1.99;59.80
13241;BME280;6687;47.790;7.322;2023-02-26T17:30:13;98855.25;;;1.81;59.85
13241;BME280;6687;47.790;7.322;2023-02-26T17:32:41;98854.03;;;1.69;60.23
13241;BME280;6687;47.790;7.322;2023-02-26T17:35:11;98854.69;;;2.13;60.71
13241;BME280;6687;47.790;7.322;2023-02-26T17:37:38;98856.34;;;1.63;59.93
13241;BME280;6687;47.790;7.322;2023-02-26T17:40:16;98875.38;;;1.71;60.45
13241;BME280;6687;47.790;7.322;2023-02-26T17:42:43;98887.22;;;1.69;61.16
13241;BME280;6687;47.790;7.322;2023-02-26T17:45:12;98883.63;;;1.64;60.78
13241;BME280;6687;47.790;7.322;2023-02-26T17:47:39;98881.88;;;1.63;61.03
13241;BME280;6687;47.790;7.322;2023-02-26T17:50:25;98894.91;;;1.47;61.16
13241;BME280;6687;47.790;7.322;2023-02-26T17:52:54;98905.34;;;1.53;60.58
13241;BME280;6687;47.790;7.322;2023-02-26T17:55:21;98885.25;;;1.86;61.43
13241;BME280;6687;47.790;7.322;2023-02-26T17:57:48;98903.94;;;1.61;60.76
13241;BME280;6687;47.790;7.322;2023-02-26T18:00:18;98895.13;;;1.53;60.39
13241;BME280;6687;47.790;7.322;2023-02-26T18:02:44;98888.91;;;1.22;60.64
13241;BME280;6687;47.790;7.322;2023-02-26T18:05:11;98912.78;;;1.24;60.52
13241;BME280;6687;47.790;7.322;2023-02-26T18:07:38;98905.25;;;1.27;60.27
13241;BME280;6687;47.790;7.322;2023-02-26T18:10:06;98910.75;;;1.38;60.25
13241;BME280;6687;47.790;7.322;2023-02-26T18:12:33;98918.81;;;1.49;60.10
13241;BME280;6687;47.790;7.322;2023-02-26T18:15:00;98921.75;;;1.35;59.82
13241;BME280;6687;47.790;7.322;2023-02-26T18:17:28;98931.00;;;1.56;59.86
13241;BME280;6687;47.790;7.322;2023-02-26T18:19:56;98943.13;;;1.39;60.06
13241;BME280;6687;47.790;7.322;2023-02-26T18:22:23;98948.28;;;1.41;59.81
13241;BME280;6687;47.790;7.322;2023-02-26T18:24:52;98942.72;;;1.51;61.30
13241;BME280;6687;47.790;7.322;2023-02-26T18:27:20;98951.59;;;1.38;60.22
13241;BME280;6687;47.790;7.322;2023-02-26T18:29:48;98945.31;;;1.52;60.33
13241;BME280;6687;47.790;7.322;2023-02-26T18:32:16;98947.50;;;1.42;59.93
13241;BME280;6687;47.790;7.322;2023-02-26T18:34:45;98939.00;;;1.43;59.96
13241;BME280;6687;47.790;7.322;2023-02-26T18:37:16;98940.75;;;1.44;59.69
13241;BME280;6687;47.790;7.322;2023-02-26T18:39:43;98952.03;;;1.73;61.07
13241;BME280;6687;47.790;7.322;2023-02-26T18:42:17;98959.66;;;1.49;59.74
13241;BME280;6687;47.790;7.322;2023-02-26T18:44:45;98972.81;;;1.37;58.96
13241;BME280;6687;47.790;7.322;2023-02-26T18:47:11;98969.63;;;1.43;59.15
13241;BME280;6687;47.790;7.322;2023-02-26T18:49:38;98968.06;;;1.46;59.74
13241;BME280;6687;47.790;7.322;2023-02-26T18:52:07;98960.47;;;1.70;60.39
13241;BME280;6687;47.790;7.322;2023-02-26T18:54:33;98962.72;;;1.63;60.03
13241;BME280;6687;47.790;7.322;2023-02-26T18:57:02;98962.31;;;1.29;60.30
13241;BME280;6687;47.790;7.322;2023-02-26T18:59:28;98960.13;;;1.38;60.53
13241;BME280;6687;47.790;7.322;2023-02-26T19:01:55;98963.13;;;1.51;60.79
13241;BME280;6687;47.790;7.322;2023-02-26T19:04:22;98954.91;;;1.58;62.11
13241;BME280;6687;47.790;7.322;2023-02-26T19:06:49;98963.53;;;1.39;60.32
13241;BME280;6687;47.790;7.322;2023-02-26T19:09:17;98968.66;;;1.39;60.48
13241;BME280;6687;47.790;7.322;2023-02-26T19:11:44;98963.59;;;1.63;59.67
13241;BME280;6687;47.790;7.322;2023-02-26T19:14:10;98973.66;;;1.36;60.75
13241;BME280;6687;47.790;7.322;2023-02-26T19:16:37;98978.97;;;1.42;60.69
13241;BME280;6687;47.790;7.322;2023-02-26T19:19:07;98980.22;;;1.52;60.29
13241;BME280;6687;47.790;7.322;2023-02-26T19:21:34;98966.09;;;1.39;60.27
13241;BME280;6687;47.790;7.322;2023-02-26T19:24:05;98980.97;;;1.49;60.38
13241;BME280;6687;47.790;7.322;2023-02-26T19:26:35;98980.22;;;1.52;62.05
13241;BME280;6687;47.790;7.322;2023-02-26T19:29:03;98984.63;;;1.33;60.34
13241;BME280;6687;47.790;7.322;2023-02-26T19:31:30;98989.22;;;1.21;60.38
13241;BME280;6687;47.790;7.322;2023-02-26T19:33:57;98993.78;;;1.51;59.55
13241;BME280;6687;47.790;7.322;2023-02-26T19:36:24;98983.84;;;1.36;60.09
13241;BME280;6687;47.790;7.322;2023-02-26T19:38:52;98990.41;;;1.52;61.19
13241;BME280;6687;47.790;7.322;2023-02-26T19:41:18;98989.59;;;1.30;60.48
13241;BME280;6687;47.790;7.322;2023-02-26T19:43:47;98987.09;;;1.32;63.15
13241;BME280;6687;47.790;7.322;2023-02-26T19:46:14;98989.28;;;1.45;62.52
13241;BME280;6687;47.790;7.322;2023-02-26T19:48:41;98985.47;;;1.34;62.46
13241;BME280;6687;47.790;7.322;2023-02-26T19:51:08;98984.50;;;1.30;62.20
13241;BME280;6687;47.790;7.322;2023-02-26T19:53:35;98990.91;;;1.43;61.05
13241;BME280;6687;47.790;7.322;2023-02-26T19:56:03;98984.50;;;1.30;60.57
13241;BME280;6687;47.790;7.322;2023-02-26T19:58:31;98987.56;;;1.22;60.77
13241;BME280;6687;47.790;7.322;2023-02-26T20:01:01;98981.06;;;1.52;59.99
13241;BME280;6687;47.790;7.322;2023-02-26T20:03:28;98974.97;;;1.26;58.90
13241;BME280;6687;47.790;7.322;2023-02-26T20:05:56;98992.44;;;1.38;58.86
13241;BME280;6687;47.790;7.322;2023-02-26T20:08:24;98994.38;;;1.23;58.50